METAR AND TAF INFORMATION
METAR FOR LFOJ
ADDS - METARS form results

(0234 UTC 07 October 2022)
Data provider http://aviationweather.gov/metar/data/
 
METAR text: LFOJ 070230Z AUTO 07003KT CAVOK 06/05 Q1026 NOSIG
Conditions at: LFOJ (ORLEANS/BRICY(FA, FR) observed 0230 UTC 07 October 2022
Temperature: 6.0°C (43°F)
Dewpoint: 5.0°C (41°F) [RH = 93%]
Pressure (altimeter): 30.30 inches Hg (1026.0 mb)
Winds: from the ENE (70 degrees) at 3 MPH (3 knots; 1.5 m/s)
Visibility: 6 or more miles (10+ km)
Ceiling: ceiling and visibility are OK
Clouds: unknown
Weather: no significant weather observed at this time

METAR text: LFOJ 070200Z AUTO 06003KT CAVOK 06/05 Q1026 NOSIG
Conditions at: LFOJ (ORLEANS/BRICY(FA, FR) observed 0200 UTC 07 October 2022
Temperature: 6.0°C (43°F)
Dewpoint: 5.0°C (41°F) [RH = 93%]
Pressure (altimeter): 30.30 inches Hg (1026.0 mb)
Winds: from the ENE (60 degrees) at 3 MPH (3 knots; 1.5 m/s)
Visibility: 6 or more miles (10+ km)
Ceiling: ceiling and visibility are OK
Clouds: unknown
Weather: no significant weather observed at this time

Forecast for: LFOJ (ORLEANS/BRICY(FA, FR)
Text: TAF LFOJ 062000Z 0621/0721 VRB02KT CAVOK TX20/0714Z TN05/0706Z
Forecast period: 2100 UTC 06 October 2022 to 2100 UTC 07 October 2022
Forecast type: FROM: standard forecast or significant change
Winds: variable direction winds at 2 MPH (2 knots; 1.0 m/s)
Visibility: 6 or more miles (10+ km)
Ceiling: unknown
Clouds: missing
Weather: no significant weather forecast for this period

 AIRPORT MAP

 RUNWAY INFORMATION
Runway 07 Runway length 7887 ft Runway width 148 ft
Runway elevation 412 ft Runway displaced threshold 0 ft Runway heading 69
Runway 25 Runway length 7887 ft Runway width 148 ft
Runway elevation 399 ft Runway displaced threshold 0 ft Runway heading 249

 AIRPORT FREQUENCIES
Type APP Name APP Frequency 122.7 MHZ
Type GND Name GND Frequency 122.1 MHZ
Type TWR Name TWR Frequency 122.1 MHZ

 AIRPORT NEAR NAVIGATION AIDS
Type TACAN Name Orléans Frequency 116400 KHZ
Type NDB Name Orléans Frequency 385 KHZ



Powered by Virtual Airlines Manager [v2.6.2]